createdAt,value
2019-01-26T00:00:42.926Z,0.41
2019-01-26T00:03:16.474Z,0.38
2019-01-26T00:05:50.379Z,0.43
2019-01-26T00:08:35.442Z,0.47
2019-01-26T00:11:08.660Z,0.46
2019-01-26T00:13:43.030Z,0.49
2019-01-26T00:16:25.515Z,0.54
2019-01-26T00:19:09.709Z,0.55
2019-01-26T00:21:44.262Z,0.53
2019-01-26T00:24:17.398Z,0.52
2019-01-26T00:26:50.624Z,0.52
2019-01-26T00:29:23.886Z,0.56
2019-01-26T00:32:02.126Z,0.57
2019-01-26T00:34:35.590Z,0.60
2019-01-26T00:37:08.988Z,0.60
2019-01-26T00:39:42.768Z,0.63
2019-01-26T00:42:15.268Z,0.66
2019-01-26T00:44:48.470Z,0.63
2019-01-26T00:47:21.651Z,0.67
2019-01-26T00:49:55.964Z,0.68
2019-01-26T00:52:29.136Z,0.68
2019-01-26T00:55:03.106Z,0.70
2019-01-26T00:57:36.225Z,0.73
2019-01-26T01:00:20.518Z,0.77
2019-01-26T01:03:04.313Z,0.79
2019-01-26T01:05:53.123Z,0.81
2019-01-26T01:08:26.993Z,0.82
2019-01-26T01:11:09.459Z,0.87
2019-01-26T01:13:42.308Z,0.84
2019-01-26T01:16:15.170Z,0.86
2019-01-26T01:18:48.487Z,0.90
2019-01-26T01:21:24.590Z,0.92
2019-01-26T01:24:06.464Z,1.00
2019-01-26T01:26:39.640Z,0.97
2019-01-26T01:29:12.875Z,1.00
2019-01-26T01:31:55.249Z,1.07
2019-01-26T01:34:28.387Z,1.08
2019-01-26T01:37:01.827Z,1.12
2019-01-26T01:39:35.255Z,1.15
2019-01-26T01:42:10.488Z,1.20
2019-01-26T01:44:45.102Z,1.21
2019-01-26T01:47:27.501Z,1.27
2019-01-26T01:50:00.825Z,1.27
2019-01-26T01:52:34.111Z,1.26
2019-01-26T01:55:08.829Z,1.29
2019-01-26T01:57:51.174Z,1.36
2019-01-26T02:00:26.496Z,1.32
2019-01-26T02:03:00.486Z,1.34
2019-01-26T02:05:46.327Z,1.39
2019-01-26T02:08:28.992Z,1.39
2019-01-26T02:11:11.561Z,1.41
2019-01-26T02:13:45.459Z,1.42
2019-01-26T02:16:28.941Z,1.48
2019-01-26T02:19:11.221Z,1.48
2019-01-26T02:21:44.927Z,1.45
2019-01-26T02:24:18.767Z,1.45
2019-01-26T02:27:01.001Z,1.56
2019-01-26T02:29:34.487Z,1.49
2019-01-26T02:32:07.760Z,1.53
2019-01-26T02:34:41.872Z,1.59
2019-01-26T02:37:16.587Z,1.59
2019-01-26T02:39:51.106Z,1.66
2019-01-26T02:42:24.701Z,1.70
2019-01-26T02:44:58.789Z,1.65
2019-01-26T02:47:41.816Z,1.69
2019-01-26T02:50:17.572Z,1.68
2019-01-26T02:52:51.088Z,1.68
2019-01-26T02:55:24.408Z,1.69
2019-01-26T02:57:57.856Z,1.70
2019-01-26T03:00:31.450Z,1.72
2019-01-26T03:03:14.689Z,1.74
2019-01-26T03:05:47.927Z,1.74
2019-01-26T03:08:21.060Z,1.72
2019-01-26T03:11:03.469Z,1.79
2019-01-26T03:13:37.035Z,1.74
2019-01-26T03:16:10.413Z,1.77
2019-01-26T03:18:44.166Z,1.75
2019-01-26T03:21:17.699Z,1.75
2019-01-26T03:23:51.298Z,1.85
2019-01-26T03:26:24.782Z,1.81
2019-01-26T03:28:58.432Z,1.87
2019-01-26T03:31:31.892Z,1.91
2019-01-26T03:34:15.768Z,1.99
2019-01-26T03:36:48.915Z,1.90
2019-01-26T03:39:22.659Z,1.91
2019-01-26T03:41:56.083Z,1.88
2019-01-26T03:44:29.375Z,1.92
2019-01-26T03:47:02.798Z,1.94
2019-01-26T03:49:45.491Z,2.01
2019-01-26T03:52:28.107Z,2.03
2019-01-26T03:55:06.273Z,1.96
2019-01-26T03:57:39.882Z,2.01
2019-01-26T04:00:18.961Z,2.03
2019-01-26T04:03:01.564Z,2.11
2019-01-26T04:05:44.881Z,2.04
2019-01-26T04:08:35.342Z,2.08
2019-01-26T04:11:17.750Z,2.08
2019-01-26T04:13:51.021Z,2.07
2019-01-26T04:16:25.101Z,2.03
2019-01-26T04:18:58.430Z,2.03
2019-01-26T04:21:32.238Z,2.05
2019-01-26T04:24:04.262Z,2.02
2019-01-26T04:26:38.726Z,2.00
2019-01-26T04:29:14.217Z,2.02
2019-01-26T04:31:47.831Z,2.01
2019-01-26T04:34:21.767Z,2.02
2019-01-26T04:36:55.472Z,2.01
2019-01-26T04:39:29.388Z,2.03
2019-01-26T04:42:02.991Z,2.03
2019-01-26T04:44:45.316Z,2.08
2019-01-26T04:47:18.885Z,2.07
2019-01-26T04:49:51.991Z,2.06
2019-01-26T04:52:25.701Z,2.11
2019-01-26T04:55:00.226Z,2.08
2019-01-26T04:57:36.977Z,2.06
2019-01-26T05:00:29.434Z,2.12
2019-01-26T05:03:02.753Z,2.11
2019-01-26T05:06:02.707Z,2.15
2019-01-26T05:08:46.305Z,2.14
2019-01-26T05:11:30.201Z,2.15
2019-01-26T05:14:04.009Z,2.13
2019-01-26T05:16:38.478Z,2.13
2019-01-26T05:19:20.689Z,2.18
2019-01-26T05:21:54.722Z,2.16
2019-01-26T05:24:37.078Z,2.22
2019-01-26T05:27:10.971Z,2.16
2019-01-26T05:30:01.415Z,2.18
2019-01-26T05:32:34.653Z,2.06
2019-01-26T05:35:08.066Z,2.02
2019-01-26T05:37:41.565Z,2.05
2019-01-26T05:40:17.849Z,2.01
2019-01-26T05:43:00.593Z,2.05
2019-01-26T05:45:44.422Z,2.02
2019-01-26T05:48:28.416Z,2.03
2019-01-26T05:51:01.669Z,2.01
2019-01-26T05:53:49.356Z,1.96
2019-01-26T05:56:40.500Z,1.98
2019-01-26T05:59:13.983Z,1.98
2019-01-26T06:01:55.858Z,1.96
2019-01-26T06:04:29.305Z,1.95
2019-01-26T06:07:03.282Z,1.94
2019-01-26T06:09:34.852Z,1.95
2019-01-26T06:12:10.431Z,2.02
2019-01-26T06:14:43.911Z,2.03
2019-01-26T06:17:17.532Z,2.04
2019-01-26T06:19:53.863Z,2.02
2019-01-26T06:22:27.701Z,2.02
2019-01-26T06:25:00.859Z,1.98
2019-01-26T06:27:43.201Z,1.96
2019-01-26T06:30:29.695Z,1.98
2019-01-26T06:33:03.345Z,1.96
2019-01-26T06:35:36.528Z,1.95
2019-01-26T06:38:11.135Z,1.93
2019-01-26T06:40:54.411Z,1.98
2019-01-26T06:43:29.595Z,1.93
2019-01-26T06:46:02.818Z,2.03
2019-01-26T06:48:40.188Z,2.02
2019-01-26T06:51:13.404Z,2.00
2019-01-26T06:53:52.147Z,1.98
2019-01-26T06:56:36.499Z,1.98
2019-01-26T06:59:11.631Z,1.94
2019-01-26T07:01:49.231Z,1.93
2019-01-26T07:04:32.720Z,1.95
2019-01-26T07:07:15.571Z,2.00
2019-01-26T07:09:57.546Z,2.11
2019-01-26T07:12:31.030Z,2.14
2019-01-26T07:15:05.273Z,2.10
2019-01-26T07:17:47.832Z,2.17
2019-01-26T07:20:21.047Z,2.07
2019-01-26T07:22:54.207Z,2.00
2019-01-26T07:25:43.114Z,2.04
2019-01-26T07:28:25.978Z,2.09
2019-01-26T07:30:59.455Z,2.09
2019-01-26T07:33:32.591Z,2.04
2019-01-26T07:36:05.998Z,2.00
2019-01-26T07:38:39.901Z,1.99
2019-01-26T07:41:13.373Z,2.04
2019-01-26T07:43:46.900Z,2.07
2019-01-26T07:46:18.842Z,2.11
2019-01-26T07:48:51.968Z,2.11
2019-01-26T07:51:34.113Z,2.08
2019-01-26T07:54:07.795Z,2.08
2019-01-26T07:56:41.124Z,2.23
2019-01-26T07:59:14.622Z,2.16
2019-01-26T08:01:48.687Z,2.11
2019-01-26T08:04:22.253Z,2.09
2019-01-26T08:06:56.065Z,2.14
2019-01-26T08:09:30.245Z,2.28
2019-01-26T08:12:19.422Z,2.30
2019-01-26T08:15:01.943Z,2.23
2019-01-26T08:17:35.722Z,2.14
2019-01-26T08:20:12.765Z,2.13
2019-01-26T08:22:46.859Z,2.14
2019-01-26T08:25:35.881Z,2.21
2019-01-26T08:28:09.028Z,2.19
2019-01-26T08:30:42.715Z,2.21
2019-01-26T08:33:15.996Z,2.20
2019-01-26T08:35:49.413Z,2.23
2019-01-26T08:38:22.991Z,2.29
2019-01-26T08:40:57.216Z,2.32
2019-01-26T08:43:30.938Z,2.32
2019-01-26T08:46:04.725Z,2.36
2019-01-26T08:48:37.925Z,2.36
2019-01-26T08:51:11.828Z,2.40
2019-01-26T08:53:45.089Z,2.46
2019-01-26T08:56:18.895Z,2.56
2019-01-26T08:58:52.069Z,2.60
2019-01-26T09:01:25.535Z,2.60
2019-01-26T09:04:04.306Z,2.64
2019-01-26T09:06:40.418Z,2.69
2019-01-26T09:09:22.370Z,2.74
2019-01-26T09:11:55.857Z,2.73
2019-01-26T09:14:29.385Z,2.74
2019-01-26T09:17:04.734Z,2.80
2019-01-26T09:19:38.485Z,2.84
2019-01-26T09:22:13.004Z,2.87
2019-01-26T09:24:54.993Z,3.04
2019-01-26T09:27:28.472Z,2.99
2019-01-26T09:30:01.715Z,3.10
2019-01-26T09:32:36.667Z,3.07
2019-01-26T09:35:09.441Z,3.16
2019-01-26T09:37:42.669Z,3.16
2019-01-26T09:40:16.260Z,3.19
2019-01-26T09:42:49.869Z,3.22
2019-01-26T09:45:23.066Z,3.18
2019-01-26T09:47:56.828Z,3.20
2019-01-26T09:50:29.961Z,3.22
2019-01-26T09:53:12.978Z,3.28
2019-01-26T09:55:46.378Z,3.23
2019-01-26T09:58:20.037Z,3.19
2019-01-26T10:00:53.331Z,3.21
2019-01-26T10:03:27.558Z,3.25
2019-01-26T10:06:01.081Z,3.25
2019-01-26T10:08:34.625Z,3.31
2019-01-26T10:11:08.102Z,3.30
2019-01-26T10:13:41.275Z,3.31
2019-01-26T10:16:25.629Z,3.39
2019-01-26T10:18:58.768Z,3.34
2019-01-26T10:21:32.025Z,3.34
2019-01-26T10:24:13.959Z,3.39
2019-01-26T10:26:47.650Z,3.38
2019-01-26T10:29:21.023Z,3.44
2019-01-26T10:31:54.267Z,3.44
2019-01-26T10:34:36.797Z,3.52
2019-01-26T10:37:16.490Z,3.46
2019-01-26T10:39:50.168Z,3.50
2019-01-26T10:42:28.650Z,3.48
2019-01-26T10:45:02.346Z,3.57
2019-01-26T10:47:45.926Z,3.69
2019-01-26T10:50:19.010Z,3.64
2019-01-26T10:52:53.994Z,3.69
2019-01-26T10:55:36.265Z,3.78
2019-01-26T10:58:09.405Z,3.73
2019-01-26T11:00:42.505Z,3.76
2019-01-26T11:03:28.973Z,3.85
2019-01-26T11:06:11.104Z,3.84
2019-01-26T11:08:46.125Z,3.80
2019-01-26T11:11:19.304Z,3.85
2019-01-26T11:14:01.717Z,3.93
2019-01-26T11:16:36.684Z,3.88
2019-01-26T11:19:09.837Z,3.93
2019-01-26T11:21:51.764Z,3.95
2019-01-26T11:24:25.004Z,3.86
2019-01-26T11:26:58.556Z,3.93
2019-01-26T11:29:31.799Z,3.97
2019-01-26T11:32:14.558Z,3.97
2019-01-26T11:34:47.693Z,3.93
2019-01-26T11:37:30.057Z,4.01
2019-01-26T11:40:12.828Z,4.09
2019-01-26T11:42:45.967Z,4.13
2019-01-26T11:45:28.996Z,4.19
2019-01-26T11:48:26.204Z,4.25
2019-01-26T11:51:22.886Z,4.26
2019-01-26T11:53:56.122Z,4.28
2019-01-26T11:56:42.765Z,4.35
2019-01-26T11:59:17.581Z,4.42
2019-01-26T12:02:21.685Z,4.48
2019-01-26T12:05:05.830Z,4.55
2019-01-26T12:07:59.960Z,4.70
2019-01-26T12:10:33.805Z,4.68
2019-01-26T12:13:06.957Z,4.79
2019-01-26T12:15:40.556Z,4.90
2019-01-26T12:18:13.708Z,4.96
2019-01-26T12:20:55.965Z,5.09
2019-01-26T12:23:29.158Z,5.13
2019-01-26T12:26:02.318Z,5.22
2019-01-26T12:28:35.608Z,5.30
2019-01-26T12:31:18.147Z,5.42
2019-01-26T12:33:51.193Z,5.45
2019-01-26T12:36:29.109Z,5.46
2019-01-26T12:39:02.307Z,5.48
2019-01-26T12:41:36.361Z,5.52
2019-01-26T12:44:09.633Z,5.53
2019-01-26T12:46:57.971Z,5.64
2019-01-26T12:49:31.275Z,5.60
2019-01-26T12:52:03.927Z,5.62
2019-01-26T12:54:46.204Z,5.67
2019-01-26T12:57:19.372Z,5.59
2019-01-26T12:59:53.239Z,5.62
2019-01-26T13:02:28.418Z,5.69
2019-01-26T13:05:01.879Z,5.64
2019-01-26T13:07:36.373Z,5.65
2019-01-26T13:10:13.780Z,5.62
2019-01-26T13:12:47.084Z,5.65
2019-01-26T13:15:29.110Z,5.71
2019-01-26T13:18:02.682Z,5.70
2019-01-26T13:20:36.062Z,5.70
2019-01-26T13:23:09.566Z,5.67
2019-01-26T13:25:43.258Z,5.68
2019-01-26T13:28:16.456Z,5.66
2019-01-26T13:30:49.999Z,5.70
2019-01-26T13:33:23.735Z,5.72
2019-01-26T13:35:56.981Z,5.72
2019-01-26T13:38:40.335Z,5.77
2019-01-26T13:41:22.824Z,5.81
2019-01-26T13:44:05.878Z,5.82
2019-01-26T13:46:39.654Z,5.73
2019-01-26T13:49:12.801Z,5.75
2019-01-26T13:51:46.011Z,5.76
2019-01-26T13:54:28.839Z,5.80
2019-01-26T13:57:05.817Z,5.73
2019-01-26T13:59:39.060Z,5.72
2019-01-26T14:02:12.192Z,5.67
2019-01-26T14:04:54.237Z,5.76
2019-01-26T14:07:28.422Z,5.72
2019-01-26T14:10:01.774Z,5.70
2019-01-26T14:12:44.294Z,5.75
2019-01-26T14:15:19.822Z,5.72
2019-01-26T14:17:52.921Z,5.76
2019-01-26T14:20:26.537Z,5.73
2019-01-26T14:22:59.709Z,5.75
2019-01-26T14:25:33.295Z,5.76
2019-01-26T14:28:06.768Z,5.75
2019-01-26T14:30:49.168Z,5.74
2019-01-26T14:33:22.314Z,5.78
2019-01-26T14:35:55.605Z,5.78
2019-01-26T14:38:29.469Z,5.77
2019-01-26T14:41:03.103Z,5.75
2019-01-26T14:43:36.615Z,5.75
2019-01-26T14:46:09.842Z,5.76
2019-01-26T14:48:51.628Z,5.76
2019-01-26T14:51:24.825Z,5.74
2019-01-26T14:53:59.589Z,5.72
2019-01-26T14:56:42.214Z,5.74
2019-01-26T14:59:24.583Z,5.77
2019-01-26T15:01:58.735Z,5.70
2019-01-26T15:04:40.935Z,5.72
2019-01-26T15:07:14.079Z,5.70
2019-01-26T15:09:47.190Z,5.70
2019-01-26T15:12:19.209Z,5.70
2019-01-26T15:15:02.327Z,5.73
2019-01-26T15:17:44.762Z,5.73
2019-01-26T15:20:21.073Z,5.67
2019-01-26T15:22:54.240Z,5.69
2019-01-26T15:25:27.376Z,5.70
2019-01-26T15:28:10.528Z,5.73
2019-01-26T15:30:44.239Z,5.66
2019-01-26T15:33:18.101Z,5.71
2019-01-26T15:35:51.564Z,5.68
2019-01-26T15:38:25.001Z,5.66
2019-01-26T15:41:07.713Z,5.68
2019-01-26T15:43:49.521Z,5.65
2019-01-26T15:46:22.990Z,5.62
2019-01-26T15:48:56.117Z,5.63
2019-01-26T15:51:38.250Z,5.66
2019-01-26T15:54:11.664Z,5.60
2019-01-26T15:56:45.474Z,5.61
2019-01-26T15:59:20.855Z,5.59
2019-01-26T16:01:54.056Z,5.61
2019-01-26T16:04:28.645Z,5.58
2019-01-26T16:07:12.530Z,5.63
2019-01-26T16:09:46.023Z,5.57
2019-01-26T16:12:25.015Z,5.55
2019-01-26T16:15:09.988Z,5.62
2019-01-26T16:17:43.868Z,5.56
2019-01-26T16:20:20.440Z,5.55
2019-01-26T16:22:53.960Z,5.61
2019-01-26T16:25:27.696Z,5.57
2019-01-26T16:28:00.956Z,5.55
2019-01-26T16:30:34.610Z,5.54
2019-01-26T16:33:08.440Z,5.54
2019-01-26T16:35:41.713Z,5.55
2019-01-26T16:38:26.339Z,5.60
2019-01-26T16:40:58.090Z,5.56
2019-01-26T16:43:31.536Z,5.55
2019-01-26T16:46:05.094Z,5.55
2019-01-26T16:48:38.936Z,5.52
2019-01-26T16:51:12.186Z,5.53
2019-01-26T16:53:46.284Z,5.53
2019-01-26T16:56:20.382Z,5.53
2019-01-26T16:58:53.846Z,5.50
2019-01-26T17:01:36.622Z,5.54
2019-01-26T17:04:19.418Z,5.52
2019-01-26T17:06:53.010Z,5.44
2019-01-26T17:09:25.463Z,5.42
2019-01-26T17:11:58.994Z,5.42
2019-01-26T17:14:30.979Z,5.41
2019-01-26T17:17:04.235Z,5.40
2019-01-26T17:19:37.738Z,5.38
2019-01-26T17:22:11.628Z,5.36
2019-01-26T17:24:45.181Z,5.35
2019-01-26T17:27:20.943Z,5.32
2019-01-26T17:29:55.606Z,5.35
2019-01-26T17:32:30.151Z,5.32
2019-01-26T17:35:11.887Z,5.37
2019-01-26T17:37:46.626Z,5.28
2019-01-26T17:40:21.503Z,5.26
2019-01-26T17:43:04.397Z,5.31
2019-01-26T17:45:46.927Z,5.29
2019-01-26T17:48:21.457Z,5.23
2019-01-26T17:51:04.520Z,5.29
2019-01-26T17:53:37.636Z,5.24
2019-01-26T17:56:19.988Z,5.30
2019-01-26T17:58:53.469Z,5.21
2019-01-26T18:01:26.591Z,5.21
2019-01-26T18:04:09.716Z,5.26
2019-01-26T18:06:43.527Z,5.18
2019-01-26T18:09:18.595Z,5.20
2019-01-26T18:11:52.140Z,5.18
2019-01-26T18:14:26.622Z,5.18
2019-01-26T18:17:00.338Z,5.17
2019-01-26T18:19:42.546Z,5.22
2019-01-26T18:22:16.041Z,5.13
2019-01-26T18:24:49.278Z,5.10
2019-01-26T18:27:22.780Z,5.11
2019-01-26T18:30:05.576Z,5.14
2019-01-26T18:32:47.449Z,5.15
2019-01-26T18:35:22.239Z,5.07
2019-01-26T18:37:58.479Z,5.07
2019-01-26T18:40:41.012Z,5.11
2019-01-26T18:43:14.128Z,5.07
2019-01-26T18:45:47.762Z,5.05
2019-01-26T18:48:21.945Z,5.04
2019-01-26T18:50:56.271Z,5.03
2019-01-26T18:53:29.882Z,5.00
2019-01-26T18:56:03.389Z,5.02
2019-01-26T18:58:36.948Z,5.01
2019-01-26T19:01:10.263Z,5.01
2019-01-26T19:04:08.965Z,5.05
2019-01-26T19:06:51.387Z,5.01
2019-01-26T19:09:25.546Z,4.96
2019-01-26T19:11:57.292Z,4.91
2019-01-26T19:14:39.903Z,4.95
2019-01-26T19:17:13.961Z,4.89
2019-01-26T19:19:56.404Z,4.94
2019-01-26T19:22:30.550Z,4.88
2019-01-26T19:25:15.227Z,4.91
2019-01-26T19:27:49.345Z,4.85
2019-01-26T19:30:22.930Z,4.85
2019-01-26T19:32:56.089Z,4.80
2019-01-26T19:35:30.054Z,4.83
2019-01-26T19:38:05.011Z,4.80
2019-01-26T19:40:38.682Z,4.80
2019-01-26T19:43:11.965Z,4.78
2019-01-26T19:45:45.115Z,4.78
2019-01-26T19:48:27.223Z,4.83
2019-01-26T19:51:02.716Z,4.77
2019-01-26T19:53:36.049Z,4.79
2019-01-26T19:56:21.158Z,4.78
2019-01-26T19:59:04.732Z,4.75
2019-01-26T20:01:43.277Z,4.72
2019-01-26T20:04:16.772Z,4.72
2019-01-26T20:06:50.798Z,4.72
2019-01-26T20:09:25.901Z,4.70
2019-01-26T20:11:59.102Z,4.72
2019-01-26T20:14:33.396Z,4.70
2019-01-26T20:17:15.731Z,4.73
2019-01-26T20:19:49.062Z,4.68
2019-01-26T20:22:22.577Z,4.64
2019-01-26T20:24:55.770Z,4.62
2019-01-26T20:27:41.998Z,4.66
2019-01-26T20:30:19.652Z,4.62
2019-01-26T20:32:53.508Z,4.62
2019-01-26T20:35:37.081Z,4.67
2019-01-26T20:38:19.793Z,4.69
2019-01-26T20:40:53.748Z,4.63
2019-01-26T20:43:29.645Z,4.60
2019-01-26T20:46:03.823Z,4.63
2019-01-26T20:48:37.038Z,4.64
2019-01-26T20:51:11.209Z,4.64
2019-01-26T20:53:44.717Z,4.65
2019-01-26T20:56:18.873Z,4.68
2019-01-26T20:58:51.527Z,4.68
2019-01-26T21:01:25.679Z,4.68
2019-01-26T21:04:04.132Z,4.69
2019-01-26T21:06:43.393Z,4.72
2019-01-26T21:09:17.302Z,4.68
2019-01-26T21:11:50.443Z,4.68
2019-01-26T21:14:23.819Z,4.68
2019-01-26T21:16:58.395Z,4.69
2019-01-26T21:19:31.809Z,4.70
2019-01-26T21:22:05.260Z,4.68
2019-01-26T21:24:38.318Z,4.69
2019-01-26T21:27:21.131Z,4.73
2019-01-26T21:30:05.408Z,4.74
2019-01-26T21:32:43.421Z,4.76
2019-01-26T21:35:26.758Z,4.80
2019-01-26T21:38:00.605Z,4.78
2019-01-26T21:40:34.213Z,4.77
2019-01-26T21:43:08.377Z,4.76
2019-01-26T21:45:50.898Z,4.78
2019-01-26T21:48:24.325Z,4.77
2019-01-26T21:50:57.621Z,4.74
2019-01-26T21:53:31.249Z,4.76
2019-01-26T21:56:04.855Z,4.78
2019-01-26T21:58:38.450Z,4.78
2019-01-26T22:01:12.407Z,4.84
2019-01-26T22:03:45.908Z,4.86
2019-01-26T22:06:19.485Z,4.87
2019-01-26T22:08:53.102Z,4.86
2019-01-26T22:11:26.463Z,4.86
2019-01-26T22:14:03.574Z,4.86
2019-01-26T22:16:37.225Z,4.89
2019-01-26T22:19:10.422Z,4.89
2019-01-26T22:21:46.141Z,4.92
2019-01-26T22:24:19.502Z,4.91
2019-01-26T22:26:53.011Z,4.91
2019-01-26T22:29:31.237Z,4.91
2019-01-26T22:32:12.175Z,4.95
2019-01-26T22:34:43.611Z,4.92
2019-01-26T22:37:18.957Z,4.93
2019-01-26T22:39:54.126Z,4.94
2019-01-26T22:42:28.290Z,4.94
2019-01-26T22:45:01.478Z,4.90
2019-01-26T22:47:35.597Z,4.89
2019-01-26T22:50:12.017Z,4.92
2019-01-26T22:52:46.196Z,4.91
2019-01-26T22:55:19.860Z,4.88
2019-01-26T22:57:53.992Z,4.91
2019-01-26T23:00:54.989Z,4.89
2019-01-26T23:03:47.808Z,4.90
2019-01-26T23:06:46.304Z,4.89
2019-01-26T23:09:50.157Z,4.94
2019-01-26T23:12:57.138Z,4.94
2019-01-26T23:16:11.314Z,4.91
2019-01-26T23:19:22.721Z,4.89
2019-01-26T23:22:44.604Z,4.86
2019-01-26T23:25:58.954Z,4.87
2019-01-26T23:29:07.028Z,4.95
2019-01-26T23:31:40.138Z,4.89
2019-01-26T23:34:13.636Z,4.90
2019-01-26T23:36:47.112Z,4.90
2019-01-26T23:39:20.603Z,4.91
2019-01-26T23:41:56.129Z,4.91
2019-01-26T23:44:40.990Z,4.95
2019-01-26T23:47:15.538Z,4.92
2019-01-26T23:49:51.957Z,4.92
2019-01-26T23:52:33.790Z,4.96
2019-01-26T23:55:23.084Z,4.93
2019-01-26T23:57:57.238Z,4.96
